createdAt,value
2023-02-15T00:00:45.319Z,31.13
2023-02-15T00:03:18.264Z,28.63
2023-02-15T00:05:53.823Z,36.30
2023-02-15T00:08:26.615Z,31.80
2023-02-15T00:11:08.486Z,32.93
2023-02-15T00:13:43.157Z,33.07
2023-02-15T00:16:15.897Z,35.50
2023-02-15T00:18:48.663Z,33.83
2023-02-15T00:21:21.485Z,32.83
2023-02-15T00:23:54.267Z,31.20
2023-02-15T00:26:31.323Z,38.27
2023-02-15T00:29:04.122Z,36.13
2023-02-15T00:31:37.082Z,34.10
2023-02-15T00:34:14.190Z,33.83
2023-02-15T00:36:47.129Z,35.07
2023-02-15T00:39:20.051Z,35.73
2023-02-15T00:41:54.175Z,37.40
2023-02-15T00:44:26.936Z,38.80
2023-02-15T00:46:59.660Z,36.57
2023-02-15T00:49:32.364Z,33.83
2023-02-15T00:52:05.282Z,37.67
2023-02-15T00:54:39.620Z,37.77
2023-02-15T00:57:15.880Z,36.33
2023-02-15T00:59:48.699Z,38.77
2023-02-15T01:02:21.668Z,36.70
2023-02-15T01:04:54.549Z,36.43
2023-02-15T01:07:32.235Z,37.23
2023-02-15T01:10:05.089Z,35.70
2023-02-15T01:12:39.469Z,39.30
2023-02-15T01:15:12.246Z,37.27
2023-02-15T01:17:46.758Z,35.63
2023-02-15T01:20:19.787Z,38.60
2023-02-15T01:22:54.052Z,40.77
2023-02-15T01:25:26.913Z,36.77
2023-02-15T01:28:01.191Z,41.43
2023-02-15T01:30:36.894Z,37.23
2023-02-15T01:33:18.308Z,40.77
2023-02-15T01:35:57.959Z,39.03
2023-02-15T01:38:33.306Z,40.53
2023-02-15T01:41:24.896Z,37.47
2023-02-15T01:44:00.094Z,41.53
2023-02-15T01:46:35.413Z,36.13
2023-02-15T01:49:13.032Z,37.40
2023-02-15T01:51:46.849Z,40.23
2023-02-15T01:54:20.772Z,39.73
2023-02-15T01:56:54.671Z,42.87
2023-02-15T01:59:28.787Z,37.60
2023-02-15T02:02:03.350Z,37.73
2023-02-15T02:04:39.916Z,37.80
2023-02-15T02:07:14.561Z,40.20
2023-02-15T02:09:49.725Z,39.03
2023-02-15T02:12:23.547Z,34.30
2023-02-15T02:15:08.451Z,36.30
2023-02-15T02:17:46.243Z,43.23
2023-02-15T02:20:30.585Z,37.90
2023-02-15T02:23:23.400Z,39.33
2023-02-15T02:26:17.033Z,41.30
2023-02-15T02:29:00.158Z,40.37
2023-02-15T02:31:43.989Z,40.37
2023-02-15T02:34:19.179Z,42.23
2023-02-15T02:36:54.947Z,44.43
2023-02-15T02:39:32.817Z,42.50
2023-02-15T02:42:12.843Z,40.97
2023-02-15T02:44:46.395Z,46.03
2023-02-15T02:47:22.522Z,40.20
2023-02-15T02:50:00.588Z,38.67
2023-02-15T02:52:37.318Z,43.63
2023-02-15T02:55:12.286Z,42.50
2023-02-15T02:57:48.638Z,45.27
2023-02-15T03:00:25.402Z,41.37
2023-02-15T03:03:00.360Z,42.87
2023-02-15T03:05:35.874Z,45.60
2023-02-15T03:08:22.961Z,44.43
2023-02-15T03:10:57.693Z,41.17
2023-02-15T03:13:33.035Z,41.93
2023-02-15T03:16:24.373Z,44.40
2023-02-15T03:18:59.235Z,45.43
2023-02-15T03:21:40.743Z,48.97
2023-02-15T03:24:16.520Z,44.17
2023-02-15T03:26:51.072Z,44.73
2023-02-15T03:29:28.309Z,41.67
2023-02-15T03:32:02.753Z,46.63
2023-02-15T03:34:37.637Z,42.07
2023-02-15T03:37:15.382Z,45.90
2023-02-15T03:39:51.116Z,51.17
2023-02-15T03:42:27.369Z,46.23
2023-02-15T03:45:01.496Z,47.03
2023-02-15T03:47:36.402Z,52.37
2023-02-15T03:50:31.631Z,51.13
2023-02-15T03:53:07.098Z,54.17
2023-02-15T03:55:41.941Z,59.93
2023-02-15T03:58:32.048Z,57.63
2023-02-15T04:01:24.038Z,58.93
2023-02-15T04:04:00.997Z,57.23
2023-02-15T04:06:33.802Z,66.00
2023-02-15T04:09:25.250Z,58.30
2023-02-15T04:11:58.065Z,59.00
2023-02-15T04:14:48.324Z,59.30
2023-02-15T04:17:21.247Z,59.27
2023-02-15T04:20:11.370Z,58.20
2023-02-15T04:23:02.545Z,59.70
2023-02-15T04:25:36.828Z,59.07
2023-02-15T04:28:09.967Z,58.23
2023-02-15T04:30:42.814Z,60.17
2023-02-15T04:33:15.581Z,59.83
2023-02-15T04:35:48.707Z,59.23
2023-02-15T04:38:21.412Z,61.17
2023-02-15T04:40:55.490Z,57.90
2023-02-15T04:43:28.353Z,62.07
2023-02-15T04:46:01.512Z,59.53
2023-02-15T04:48:34.426Z,57.60
2023-02-15T04:51:07.551Z,57.17
2023-02-15T04:53:40.423Z,50.63
2023-02-15T04:56:14.506Z,56.07
2023-02-15T04:58:47.350Z,55.70
2023-02-15T05:01:20.196Z,55.57
2023-02-15T05:03:53.876Z,51.53
2023-02-15T05:06:26.615Z,53.60
2023-02-15T05:09:00.135Z,56.40
2023-02-15T05:11:34.407Z,58.30
2023-02-15T05:14:07.511Z,58.67
2023-02-15T05:16:40.273Z,53.23
2023-02-15T05:19:13.116Z,52.17
2023-02-15T05:21:45.879Z,52.27
2023-02-15T05:24:37.012Z,51.73
2023-02-15T05:27:30.221Z,50.83
2023-02-15T05:30:06.547Z,58.80
2023-02-15T05:32:39.487Z,53.53
2023-02-15T05:35:14.688Z,50.67
2023-02-15T05:37:47.502Z,51.67
2023-02-15T05:40:20.349Z,53.67
2023-02-15T05:42:57.935Z,57.60
2023-02-15T05:45:30.803Z,52.07
2023-02-15T05:48:03.654Z,53.00
2023-02-15T05:50:36.280Z,51.77
2023-02-15T05:53:09.176Z,46.70
2023-02-15T05:55:44.193Z,58.90
2023-02-15T05:58:18.308Z,52.97
2023-02-15T06:00:51.166Z,55.03
2023-02-15T06:03:24.362Z,58.50
2023-02-15T06:05:57.260Z,57.33
2023-02-15T06:08:30.120Z,59.13
2023-02-15T06:11:02.938Z,63.70
2023-02-15T06:13:39.295Z,55.23
2023-02-15T06:16:12.187Z,63.57
2023-02-15T06:18:45.028Z,54.43
2023-02-15T06:21:17.841Z,51.60
2023-02-15T06:23:50.519Z,53.20
2023-02-15T06:26:23.320Z,64.80
2023-02-15T06:28:57.557Z,62.47
2023-02-15T06:31:30.534Z,57.93
2023-02-15T06:34:03.422Z,58.13
2023-02-15T06:36:37.701Z,60.37
2023-02-15T06:39:10.438Z,62.20
2023-02-15T06:41:49.510Z,58.63
2023-02-15T06:44:24.793Z,58.80
2023-02-15T06:46:57.706Z,57.90
2023-02-15T06:49:30.607Z,67.00
2023-02-15T06:52:03.372Z,56.60
2023-02-15T06:54:36.562Z,64.90
2023-02-15T06:57:12.188Z,64.77
2023-02-15T06:59:46.488Z,66.27
2023-02-15T07:02:19.223Z,70.50
2023-02-15T07:04:52.197Z,64.13
2023-02-15T07:07:25.054Z,66.90
2023-02-15T07:10:00.841Z,66.70
2023-02-15T07:12:46.705Z,68.97
2023-02-15T07:15:22.755Z,72.17
2023-02-15T07:17:55.678Z,63.27
2023-02-15T07:20:29.595Z,79.93
2023-02-15T07:23:02.447Z,63.67
2023-02-15T07:25:35.226Z,79.53
2023-02-15T07:28:08.912Z,74.67
2023-02-15T07:30:43.179Z,67.87
2023-02-15T07:33:28.085Z,67.67
2023-02-15T07:36:02.156Z,78.63
2023-02-15T07:38:36.899Z,79.97
2023-02-15T07:41:10.851Z,69.40
2023-02-15T07:43:44.405Z,77.57
2023-02-15T07:46:19.070Z,73.33
2023-02-15T07:48:52.039Z,78.47
2023-02-15T07:51:25.102Z,76.07
2023-02-15T07:53:57.884Z,66.53
2023-02-15T07:56:32.700Z,81.23
2023-02-15T07:59:06.192Z,84.83
2023-02-15T08:01:40.738Z,69.17
2023-02-15T08:04:14.557Z,74.97
2023-02-15T08:06:47.420Z,72.27
2023-02-15T08:09:20.278Z,79.27
2023-02-15T08:11:53.002Z,80.23
2023-02-15T08:14:26.761Z,74.60
2023-02-15T08:17:05.895Z,71.90
2023-02-15T08:19:38.922Z,67.23
2023-02-15T08:22:14.875Z,64.87
2023-02-15T08:24:48.396Z,66.20
2023-02-15T08:27:27.648Z,77.70
2023-02-15T08:30:00.564Z,69.97
2023-02-15T08:32:34.736Z,68.77
2023-02-15T08:35:07.773Z,65.23
2023-02-15T08:37:40.546Z,65.70
2023-02-15T08:40:14.556Z,64.60
2023-02-15T08:42:56.093Z,62.40
2023-02-15T08:45:29.705Z,68.50
2023-02-15T08:48:03.825Z,57.13
2023-02-15T08:50:36.833Z,58.77
2023-02-15T08:53:10.871Z,51.03
2023-02-15T08:55:57.402Z,52.47
2023-02-15T08:58:31.592Z,52.23
2023-02-15T09:01:10.346Z,50.77
2023-02-15T09:03:44.584Z,51.73
2023-02-15T09:06:17.842Z,41.70
2023-02-15T09:08:50.619Z,45.37
2023-02-15T09:11:27.682Z,47.53
2023-02-15T09:14:01.465Z,50.13
2023-02-15T09:16:35.180Z,47.83
2023-02-15T09:19:12.629Z,48.60
2023-02-15T09:21:45.565Z,48.67
2023-02-15T09:24:18.883Z,44.10
2023-02-15T09:26:51.703Z,43.17
2023-02-15T09:29:25.336Z,43.47
2023-02-15T09:31:58.176Z,42.63
2023-02-15T09:34:34.149Z,46.23
2023-02-15T09:37:08.193Z,48.63
2023-02-15T09:39:42.684Z,49.57
2023-02-15T09:42:33.923Z,49.70
2023-02-15T09:45:18.217Z,41.77
2023-02-15T09:48:05.749Z,39.67
2023-02-15T09:50:48.012Z,40.30
2023-02-15T09:53:36.353Z,35.90
2023-02-15T09:56:12.027Z,35.70
2023-02-15T09:58:51.059Z,36.67
2023-02-15T10:01:29.337Z,37.23
2023-02-15T10:04:19.797Z,40.73
2023-02-15T10:06:57.890Z,42.93
2023-02-15T10:09:47.219Z,42.77
2023-02-15T10:12:29.653Z,39.10
2023-02-15T10:15:26.472Z,36.33
2023-02-15T10:18:07.821Z,49.33
2023-02-15T10:20:45.421Z,39.70
2023-02-15T10:23:27.232Z,36.73
2023-02-15T10:26:02.431Z,34.60
2023-02-15T10:28:40.022Z,37.13
2023-02-15T10:31:17.563Z,39.13
2023-02-15T10:33:52.142Z,37.07
2023-02-15T10:36:30.592Z,35.37
2023-02-15T10:39:09.707Z,36.33
2023-02-15T10:41:47.423Z,34.60
2023-02-15T10:44:25.978Z,39.17
2023-02-15T10:47:07.119Z,36.93
2023-02-15T10:49:54.743Z,34.03
2023-02-15T10:52:32.878Z,37.97
2023-02-15T10:55:15.267Z,37.40
2023-02-15T10:57:54.487Z,37.53
2023-02-15T11:00:32.781Z,37.13
2023-02-15T11:03:17.217Z,38.23
2023-02-15T11:05:57.012Z,37.33
2023-02-15T11:08:31.509Z,34.23
2023-02-15T11:11:07.865Z,35.37
2023-02-15T11:13:44.275Z,35.97
2023-02-15T11:16:20.596Z,34.23
2023-02-15T11:18:57.999Z,34.53
2023-02-15T11:21:37.774Z,36.03
2023-02-15T11:24:12.912Z,32.90
2023-02-15T11:26:50.738Z,32.23
2023-02-15T11:29:25.711Z,36.80
2023-02-15T11:32:00.007Z,35.80
2023-02-15T11:34:38.186Z,34.27
2023-02-15T11:37:15.728Z,35.33
2023-02-15T11:39:52.583Z,37.57
2023-02-15T11:42:27.561Z,38.33
2023-02-15T11:45:04.055Z,34.60
2023-02-15T11:47:36.750Z,28.77
2023-02-15T11:50:13.159Z,33.23
2023-02-15T11:52:46.031Z,31.33
2023-02-15T11:55:21.534Z,35.70
2023-02-15T11:57:57.241Z,39.73
2023-02-15T12:00:36.914Z,37.77
2023-02-15T12:03:16.947Z,35.43
2023-02-15T12:05:51.952Z,35.97
2023-02-15T12:08:24.869Z,35.70
2023-02-15T12:11:07.977Z,40.83
2023-02-15T12:13:55.655Z,33.37
2023-02-15T12:16:29.639Z,34.67
2023-02-15T12:19:03.195Z,32.33
2023-02-15T12:21:41.614Z,32.60
2023-02-15T12:24:19.835Z,34.50
2023-02-15T12:26:59.987Z,36.70
2023-02-15T12:29:38.003Z,32.43
2023-02-15T12:32:13.582Z,32.13
2023-02-15T12:34:48.137Z,31.83
2023-02-15T12:37:23.333Z,31.43
2023-02-15T12:39:57.456Z,30.67
2023-02-15T12:42:43.007Z,32.97
2023-02-15T12:45:25.710Z,33.13
2023-02-15T12:48:11.703Z,34.13
2023-02-15T12:50:45.078Z,35.03
2023-02-15T12:53:20.484Z,33.83
2023-02-15T12:55:54.903Z,30.97
2023-02-15T12:58:28.535Z,41.03
2023-02-15T13:01:12.753Z,30.30
2023-02-15T13:04:00.045Z,33.03
2023-02-15T13:06:35.688Z,34.63
2023-02-15T13:09:15.235Z,35.80
2023-02-15T13:11:48.292Z,52.30
2023-02-15T13:14:22.938Z,58.63
2023-02-15T13:17:02.965Z,39.97
2023-02-15T13:19:39.404Z,32.97
2023-02-15T13:22:14.951Z,34.97
2023-02-15T13:24:53.305Z,33.67
2023-02-15T13:27:27.328Z,28.10
2023-02-15T13:30:02.825Z,31.70
2023-02-15T13:32:38.427Z,34.77
2023-02-15T13:35:15.707Z,35.70
2023-02-15T13:38:08.253Z,28.63
2023-02-15T13:40:43.854Z,32.73
2023-02-15T13:43:31.216Z,33.00
2023-02-15T13:46:10.974Z,28.37
2023-02-15T13:48:51.846Z,27.03
2023-02-15T13:51:29.820Z,32.53
2023-02-15T13:54:13.863Z,30.83
2023-02-15T13:56:51.492Z,31.67
2023-02-15T13:59:36.852Z,33.10
2023-02-15T14:02:24.735Z,27.73
2023-02-15T14:05:11.807Z,31.57
2023-02-15T14:07:51.800Z,31.23
2023-02-15T14:10:42.270Z,29.40
2023-02-15T14:13:37.719Z,30.10
2023-02-15T14:16:15.369Z,29.47
2023-02-15T14:18:50.770Z,28.53
2023-02-15T14:21:29.914Z,33.63
2023-02-15T14:24:10.918Z,32.30
2023-02-15T14:26:52.279Z,29.73
2023-02-15T14:29:29.157Z,32.50
2023-02-15T14:32:03.955Z,28.50
2023-02-15T14:34:44.267Z,30.43
2023-02-15T14:37:20.928Z,29.50
2023-02-15T14:40:15.434Z,29.27
2023-02-15T14:42:53.822Z,27.03
2023-02-15T14:45:33.323Z,28.27
2023-02-15T14:48:11.483Z,30.37
2023-02-15T14:50:46.010Z,27.40
2023-02-15T14:53:48.986Z,26.67
2023-02-15T14:56:24.131Z,22.87
2023-02-15T14:58:58.391Z,25.87
2023-02-15T15:01:32.936Z,26.80
2023-02-15T15:04:10.268Z,30.70
2023-02-15T15:06:44.927Z,35.57
2023-02-15T15:09:25.523Z,39.47
2023-02-15T15:12:15.971Z,43.73
2023-02-15T15:14:49.210Z,28.97
2023-02-15T15:17:39.053Z,33.80
2023-02-15T15:20:15.081Z,32.33
2023-02-15T15:22:48.672Z,28.27
2023-02-15T15:25:45.831Z,28.73
2023-02-15T15:28:45.317Z,29.00
2023-02-15T15:31:21.273Z,51.53
2023-02-15T15:34:11.966Z,43.67
2023-02-15T15:37:06.013Z,59.13
2023-02-15T15:39:53.065Z,36.47
2023-02-15T15:42:34.817Z,30.83
2023-02-15T15:45:22.545Z,36.90
2023-02-15T15:48:07.096Z,30.10
2023-02-15T15:50:41.447Z,36.13
2023-02-15T15:53:19.445Z,49.17
2023-02-15T15:55:55.116Z,51.33
2023-02-15T15:58:28.259Z,56.20
2023-02-15T16:01:02.610Z,42.43
2023-02-15T16:03:36.901Z,60.43
2023-02-15T16:06:13.456Z,58.23
2023-02-15T16:08:48.664Z,40.23
2023-02-15T16:11:26.464Z,42.37
2023-02-15T16:13:59.241Z,39.20
2023-02-15T16:16:32.997Z,39.23
2023-02-15T16:19:08.535Z,31.13
2023-02-15T16:21:41.274Z,34.00
2023-02-15T16:24:20.916Z,35.23
2023-02-15T16:27:01.049Z,29.43
2023-02-15T16:29:43.425Z,31.23
2023-02-15T16:32:20.715Z,30.47
2023-02-15T16:34:58.755Z,32.30
2023-02-15T16:37:34.484Z,28.77
2023-02-15T16:40:08.000Z,28.87
2023-02-15T16:42:40.859Z,28.67
2023-02-15T16:45:15.995Z,29.17
2023-02-15T16:47:51.766Z,30.50
2023-02-15T16:50:26.850Z,29.53
2023-02-15T16:52:59.990Z,34.57
2023-02-15T16:55:36.489Z,35.53
2023-02-15T16:58:10.021Z,32.43
2023-02-15T17:00:42.979Z,33.40
2023-02-15T17:03:23.478Z,31.30
2023-02-15T17:05:58.508Z,29.83
2023-02-15T17:08:32.858Z,35.33
2023-02-15T17:11:07.559Z,63.13
2023-02-15T17:13:42.828Z,49.80
2023-02-15T17:16:25.498Z,57.23
2023-02-15T17:19:00.404Z,63.40
2023-02-15T17:21:35.496Z,53.27
2023-02-15T17:24:11.244Z,48.17
2023-02-15T17:26:45.203Z,38.97
2023-02-15T17:29:23.030Z,42.83
2023-02-15T17:31:56.830Z,43.10
2023-02-15T17:34:48.504Z,36.87
2023-02-15T17:37:33.372Z,37.13
2023-02-15T17:40:10.090Z,38.10
2023-02-15T17:42:43.248Z,33.50
2023-02-15T17:45:19.063Z,43.90
2023-02-15T17:47:52.132Z,39.20
2023-02-15T17:50:26.002Z,42.93
2023-02-15T17:53:01.896Z,42.63
2023-02-15T17:55:39.153Z,45.10
2023-02-15T17:58:13.339Z,42.77
2023-02-15T18:01:05.031Z,44.73
2023-02-15T18:04:00.208Z,40.73
2023-02-15T18:06:50.465Z,46.63
2023-02-15T18:09:42.280Z,43.97
2023-02-15T18:12:20.214Z,40.47
2023-02-15T18:14:54.133Z,44.73
2023-02-15T18:17:29.147Z,37.40
2023-02-15T18:20:05.457Z,40.67
2023-02-15T18:22:38.426Z,39.13
2023-02-15T18:25:15.153Z,39.83
2023-02-15T18:27:47.929Z,38.83
2023-02-15T18:30:21.954Z,42.23
2023-02-15T18:32:56.615Z,39.43
2023-02-15T18:35:31.351Z,43.10
2023-02-15T18:38:04.086Z,37.97
2023-02-15T18:40:38.131Z,43.73
2023-02-15T18:43:12.723Z,41.77
2023-02-15T18:45:45.513Z,44.83
2023-02-15T18:48:18.356Z,44.63
2023-02-15T18:50:53.025Z,40.87
2023-02-15T18:53:25.831Z,45.53
2023-02-15T18:56:00.185Z,40.07
2023-02-15T18:58:32.846Z,41.57
2023-02-15T19:01:08.258Z,42.30
2023-02-15T19:03:41.226Z,42.73
2023-02-15T19:06:15.930Z,40.50
2023-02-15T19:08:50.705Z,36.23
2023-02-15T19:11:29.624Z,45.00
2023-02-15T19:14:02.597Z,44.17
2023-02-15T19:16:38.549Z,43.67
2023-02-15T19:19:11.491Z,44.57
2023-02-15T19:21:44.184Z,45.53
2023-02-15T19:24:24.680Z,38.37
2023-02-15T19:26:59.229Z,48.73
2023-02-15T19:29:32.400Z,49.13
2023-02-15T19:32:05.448Z,49.90
2023-02-15T19:34:41.120Z,49.23
2023-02-15T19:37:21.215Z,41.87
2023-02-15T19:39:54.506Z,44.37
2023-02-15T19:42:30.039Z,46.67
2023-02-15T19:45:02.896Z,43.40
2023-02-15T19:47:35.887Z,44.97
2023-02-15T19:50:09.937Z,42.93
2023-02-15T19:52:43.061Z,41.97
2023-02-15T19:55:17.066Z,44.50
2023-02-15T19:57:52.251Z,49.50
2023-02-15T20:00:33.126Z,48.63
2023-02-15T20:03:06.008Z,51.47
2023-02-15T20:05:39.284Z,46.73
2023-02-15T20:08:17.508Z,44.20
2023-02-15T20:10:50.539Z,47.50
2023-02-15T20:13:24.706Z,45.30
2023-02-15T20:15:57.670Z,43.77
2023-02-15T20:18:30.464Z,46.23
2023-02-15T20:21:03.662Z,49.73
2023-02-15T20:23:36.715Z,46.63
2023-02-15T20:26:14.455Z,50.80
2023-02-15T20:28:48.595Z,49.13
2023-02-15T20:31:21.799Z,48.73
2023-02-15T20:33:54.615Z,50.70
2023-02-15T20:36:27.504Z,53.43
2023-02-15T20:39:01.224Z,52.03
2023-02-15T20:41:43.051Z,48.47
2023-02-15T20:44:19.748Z,48.10
2023-02-15T20:46:55.380Z,56.60
2023-02-15T20:49:28.624Z,54.67
2023-02-15T20:52:02.528Z,51.83
2023-02-15T20:54:38.025Z,46.73
2023-02-15T20:57:12.792Z,51.80
2023-02-15T20:59:46.990Z,51.20
2023-02-15T21:02:23.389Z,53.13
2023-02-15T21:04:56.264Z,53.23
2023-02-15T21:07:29.083Z,47.70
2023-02-15T21:10:01.981Z,51.27
2023-02-15T21:12:34.736Z,52.43
2023-02-15T21:15:24.564Z,49.57
2023-02-15T21:17:58.246Z,49.43
2023-02-15T21:20:31.926Z,48.83
2023-02-15T21:23:08.910Z,53.20
2023-02-15T21:25:42.378Z,57.90
2023-02-15T21:28:19.124Z,54.17
2023-02-15T21:30:55.985Z,57.47
2023-02-15T21:33:28.834Z,58.90
2023-02-15T21:36:01.515Z,53.37
2023-02-15T21:38:34.588Z,52.57
2023-02-15T21:41:21.272Z,56.97
2023-02-15T21:44:11.437Z,54.70
2023-02-15T21:47:03.026Z,55.23
2023-02-15T21:49:35.861Z,57.87
2023-02-15T21:52:11.529Z,59.23
2023-02-15T21:54:44.834Z,53.83
2023-02-15T21:57:19.094Z,56.93
2023-02-15T21:59:53.253Z,56.23
2023-02-15T22:02:29.063Z,56.60
2023-02-15T22:05:01.805Z,58.70
2023-02-15T22:07:34.510Z,54.63
2023-02-15T22:10:08.133Z,56.57
2023-02-15T22:12:43.469Z,56.87
2023-02-15T22:15:19.098Z,56.17
2023-02-15T22:17:54.805Z,54.07
2023-02-15T22:20:27.858Z,52.80
2023-02-15T22:23:00.679Z,58.23
2023-02-15T22:25:33.376Z,56.50
2023-02-15T22:28:06.073Z,55.80
2023-02-15T22:30:38.814Z,54.60
2023-02-15T22:33:21.556Z,58.43
2023-02-15T22:35:54.542Z,54.17
2023-02-15T22:38:27.452Z,53.27
2023-02-15T22:41:04.460Z,61.07
2023-02-15T22:43:39.287Z,61.33
2023-02-15T22:46:16.155Z,60.03
2023-02-15T22:48:53.102Z,56.90
2023-02-15T22:51:26.154Z,56.60
2023-02-15T22:53:59.247Z,60.20
2023-02-15T22:56:35.882Z,53.67
2023-02-15T22:59:12.048Z,59.67
2023-02-15T23:01:44.909Z,56.53
2023-02-15T23:04:20.564Z,52.17
2023-02-15T23:06:55.194Z,59.93
2023-02-15T23:09:28.039Z,53.43
2023-02-15T23:12:01.066Z,56.93
2023-02-15T23:14:35.287Z,51.17
2023-02-15T23:17:07.909Z,49.60
2023-02-15T23:19:41.984Z,51.63
2023-02-15T23:22:15.625Z,57.07
2023-02-15T23:24:50.439Z,50.00
2023-02-15T23:27:40.763Z,52.77
2023-02-15T23:30:15.181Z,52.17
2023-02-15T23:32:48.076Z,51.17
2023-02-15T23:35:24.358Z,53.70
2023-02-15T23:37:57.122Z,51.50
2023-02-15T23:40:47.292Z,48.33
2023-02-15T23:43:21.367Z,52.17
2023-02-15T23:45:54.252Z,50.77
2023-02-15T23:48:30.693Z,49.43
2023-02-15T23:51:05.498Z,49.47
2023-02-15T23:53:38.599Z,49.97
2023-02-15T23:56:12.908Z,52.10
2023-02-15T23:58:46.862Z,45.17
